createdAt,value
2023-04-29T00:00:10.287Z,16.30
2023-04-29T00:02:39.561Z,16.20
2023-04-29T00:05:06.913Z,16.10
2023-04-29T00:07:33.943Z,16.10
2023-04-29T00:10:00.745Z,16.20
2023-04-29T00:12:28.320Z,16.20
2023-04-29T00:14:54.957Z,16.20
2023-04-29T00:17:21.687Z,16.20
2023-04-29T00:19:48.421Z,16.20
2023-04-29T00:22:15.006Z,16.10
2023-04-29T00:24:41.616Z,16.10
2023-04-29T00:27:08.278Z,16.10
2023-04-29T00:29:35.076Z,16.10
2023-04-29T00:32:01.651Z,16.10
2023-04-29T00:34:28.449Z,16.10
2023-04-29T00:36:55.173Z,16.10
2023-04-29T00:39:21.773Z,16.00
2023-04-29T00:41:48.409Z,16.00
2023-04-29T00:44:15.059Z,16.00
2023-04-29T00:46:41.793Z,15.80
2023-04-29T00:49:08.751Z,15.60
2023-04-29T00:51:37.467Z,15.60
2023-04-29T00:54:05.566Z,15.50
2023-04-29T00:56:38.604Z,15.40
2023-04-29T00:59:06.153Z,15.40
2023-04-29T01:01:33.109Z,15.20
2023-04-29T01:04:00.329Z,15.20
2023-04-29T01:06:58.400Z,15.20
2023-04-29T01:09:27.692Z,15.20
2023-04-29T01:12:11.461Z,15.20
2023-04-29T01:14:39.367Z,15.20
2023-04-29T01:17:10.925Z,15.20
2023-04-29T01:19:56.833Z,15.20
2023-04-29T01:22:23.642Z,15.10
2023-04-29T01:24:51.073Z,15.10
2023-04-29T01:27:42.009Z,15.10
2023-04-29T01:30:32.875Z,15.10
2023-04-29T01:33:14.914Z,15.10
2023-04-29T01:36:00.688Z,15.10
2023-04-29T01:38:39.408Z,15.10
2023-04-29T01:41:37.094Z,15.00
2023-04-29T01:44:07.911Z,15.00
2023-04-29T01:46:35.900Z,14.90
2023-04-29T01:49:03.357Z,14.90
2023-04-29T01:51:29.978Z,14.90
2023-04-29T01:53:57.260Z,14.80
2023-04-29T01:56:23.912Z,14.90
2023-04-29T01:58:50.504Z,14.80
2023-04-29T02:01:17.211Z,14.70
2023-04-29T02:03:44.207Z,14.70
2023-04-29T02:06:10.963Z,14.70
2023-04-29T02:08:37.744Z,14.70
2023-04-29T02:11:04.557Z,14.70
2023-04-29T02:13:31.807Z,14.80
2023-04-29T02:15:58.410Z,14.70
2023-04-29T02:18:25.023Z,14.70
2023-04-29T02:20:51.812Z,14.70
2023-04-29T02:23:18.415Z,14.70
2023-04-29T02:25:44.955Z,14.70
2023-04-29T02:28:12.179Z,14.60
2023-04-29T02:30:38.871Z,14.60
2023-04-29T02:33:08.258Z,14.60
2023-04-29T02:35:38.226Z,14.60
2023-04-29T02:38:04.869Z,14.60
2023-04-29T02:40:31.525Z,14.60
2023-04-29T02:42:58.131Z,14.60
2023-04-29T02:45:24.751Z,14.60
2023-04-29T02:47:51.418Z,14.60
2023-04-29T02:50:18.051Z,14.70
2023-04-29T02:52:44.661Z,14.70
2023-04-29T02:55:11.318Z,14.70
2023-04-29T02:57:37.930Z,14.80
2023-04-29T03:00:05.273Z,14.70
2023-04-29T03:02:32.127Z,14.70
2023-04-29T03:04:58.842Z,14.70
2023-04-29T03:07:25.505Z,14.60
2023-04-29T03:09:52.390Z,14.60
2023-04-29T03:12:19.187Z,14.60
2023-04-29T03:14:46.190Z,14.70
2023-04-29T03:17:13.426Z,14.70
2023-04-29T03:19:40.123Z,14.70
2023-04-29T03:22:11.624Z,14.70
2023-04-29T03:24:38.928Z,14.80
2023-04-29T03:27:06.834Z,14.80
2023-04-29T03:29:33.466Z,14.70
2023-04-29T03:32:00.201Z,14.60
2023-04-29T03:34:26.918Z,14.60
2023-04-29T03:36:54.085Z,14.60
2023-04-29T03:39:20.675Z,14.50
2023-04-29T03:41:47.588Z,14.60
2023-04-29T03:44:14.391Z,14.50
2023-04-29T03:46:41.167Z,14.50
2023-04-29T03:49:08.093Z,14.50
2023-04-29T03:51:34.957Z,14.40
2023-04-29T03:54:01.752Z,14.40
2023-04-29T03:56:28.375Z,14.40
2023-04-29T03:58:54.931Z,14.40
2023-04-29T04:01:21.594Z,14.40
2023-04-29T04:03:48.715Z,14.40
2023-04-29T04:06:15.520Z,14.30
2023-04-29T04:08:42.232Z,14.30
2023-04-29T04:11:09.634Z,14.40
2023-04-29T04:13:39.332Z,14.40
2023-04-29T04:16:06.101Z,14.40
2023-04-29T04:18:32.756Z,14.40
2023-04-29T04:21:08.787Z,14.50
2023-04-29T04:23:36.153Z,14.50
2023-04-29T04:26:03.621Z,14.60
2023-04-29T04:28:30.288Z,14.60
2023-04-29T04:30:56.922Z,14.60
2023-04-29T04:33:23.784Z,14.70
2023-04-29T04:35:50.489Z,14.70
2023-04-29T04:38:17.539Z,14.60
2023-04-29T04:40:44.981Z,14.60
2023-04-29T04:43:11.684Z,14.60
2023-04-29T04:45:38.654Z,14.50
2023-04-29T04:48:07.884Z,14.50
2023-04-29T04:50:38.849Z,14.60
2023-04-29T04:53:05.633Z,14.60
2023-04-29T04:55:33.536Z,14.70
2023-04-29T04:58:00.196Z,14.60
2023-04-29T05:00:26.858Z,14.50
2023-04-29T05:02:53.666Z,14.50
2023-04-29T05:05:20.332Z,14.40
2023-04-29T05:07:47.253Z,14.40
2023-04-29T05:10:13.881Z,14.40
2023-04-29T05:12:40.544Z,14.40
2023-04-29T05:15:09.953Z,14.40
2023-04-29T05:17:39.583Z,14.40
2023-04-29T05:20:09.916Z,14.40
2023-04-29T05:22:39.459Z,14.40
2023-04-29T05:25:10.023Z,14.40
2023-04-29T05:27:40.015Z,14.40
2023-04-29T05:30:09.960Z,14.40
2023-04-29T05:32:38.831Z,14.40
2023-04-29T05:35:07.507Z,14.50
2023-04-29T05:37:36.399Z,14.50
2023-04-29T05:40:03.511Z,14.50
2023-04-29T05:42:30.755Z,14.50
2023-04-29T05:44:57.374Z,14.50
2023-04-29T05:47:24.018Z,14.50
2023-04-29T05:49:51.102Z,14.50
2023-04-29T05:52:17.893Z,14.50
2023-04-29T05:54:44.558Z,14.50
2023-04-29T05:57:11.184Z,14.60
2023-04-29T05:59:40.894Z,14.60
2023-04-29T06:02:07.503Z,14.60
2023-04-29T06:04:34.394Z,14.70
2023-04-29T06:07:01.487Z,14.70
2023-04-29T06:09:28.359Z,14.70
2023-04-29T06:11:56.872Z,14.70
2023-04-29T06:14:23.900Z,14.70
2023-04-29T06:16:50.688Z,14.80
2023-04-29T06:19:17.412Z,14.80
2023-04-29T06:21:44.309Z,14.90
2023-04-29T06:24:10.890Z,14.90
2023-04-29T06:26:37.733Z,15.00
2023-04-29T06:29:04.338Z,15.00
2023-04-29T06:31:31.081Z,15.00
2023-04-29T06:33:57.808Z,15.10
2023-04-29T06:36:24.853Z,15.10
2023-04-29T06:38:51.486Z,15.20
2023-04-29T06:41:18.329Z,15.20
2023-04-29T06:43:46.232Z,15.20
2023-04-29T06:46:14.027Z,15.30
2023-04-29T06:48:40.617Z,15.40
2023-04-29T06:51:07.298Z,15.40
2023-04-29T06:53:34.179Z,15.40
2023-04-29T06:56:00.836Z,15.50
2023-04-29T06:58:27.667Z,15.50
2023-04-29T07:00:54.365Z,15.50
2023-04-29T07:03:21.097Z,15.60
2023-04-29T07:05:47.761Z,15.60
2023-04-29T07:08:14.687Z,15.60
2023-04-29T07:10:41.681Z,15.70
2023-04-29T07:13:08.551Z,15.70
2023-04-29T07:15:36.471Z,15.70
2023-04-29T07:18:07.003Z,15.70
2023-04-29T07:20:39.668Z,15.80
2023-04-29T07:23:06.401Z,15.90
2023-04-29T07:25:33.805Z,15.90
2023-04-29T07:28:00.659Z,15.90
2023-04-29T07:30:27.472Z,15.90
2023-04-29T07:32:54.151Z,15.90
2023-04-29T07:35:20.938Z,16.00
2023-04-29T07:37:48.220Z,16.00
2023-04-29T07:40:14.847Z,15.90
2023-04-29T07:42:41.511Z,16.10
2023-04-29T07:45:08.765Z,16.10
2023-04-29T07:47:36.073Z,16.20
2023-04-29T07:50:03.242Z,16.20
2023-04-29T07:52:29.890Z,16.30
2023-04-29T07:54:56.566Z,16.30
2023-04-29T07:57:23.356Z,16.30
2023-04-29T07:59:56.325Z,16.30
2023-04-29T08:02:23.230Z,16.30
2023-04-29T08:04:54.885Z,16.30
2023-04-29T08:07:21.893Z,16.30
2023-04-29T08:09:48.491Z,16.40
2023-04-29T08:12:15.153Z,16.50
2023-04-29T08:14:41.850Z,16.50
2023-04-29T08:17:08.640Z,16.40
2023-04-29T08:19:35.926Z,16.50
2023-04-29T08:22:04.155Z,16.60
2023-04-29T08:24:31.084Z,16.60
2023-04-29T08:26:59.162Z,16.70
2023-04-29T08:29:26.165Z,16.70
2023-04-29T08:31:53.090Z,16.80
2023-04-29T08:34:19.798Z,16.90
2023-04-29T08:36:46.426Z,16.90
2023-04-29T08:39:13.076Z,17.00
2023-04-29T08:41:39.736Z,17.00
2023-04-29T08:44:10.023Z,17.10
2023-04-29T08:46:39.785Z,17.10
2023-04-29T08:49:09.080Z,17.30
2023-04-29T08:51:41.590Z,17.30
2023-04-29T08:54:11.853Z,17.30
2023-04-29T08:56:39.794Z,17.50
2023-04-29T08:59:09.589Z,17.50
2023-04-29T09:01:38.403Z,17.50
2023-04-29T09:04:25.461Z,17.70
2023-04-29T09:06:56.166Z,17.70
2023-04-29T09:09:24.398Z,17.70
2023-04-29T09:11:51.092Z,17.70
2023-04-29T09:14:19.273Z,17.60
2023-04-29T09:16:49.147Z,17.60
2023-04-29T09:19:39.385Z,17.60
2023-04-29T09:22:08.815Z,17.70
2023-04-29T09:24:35.661Z,17.80
2023-04-29T09:27:03.298Z,17.80
2023-04-29T09:29:31.985Z,17.80
2023-04-29T09:31:59.122Z,17.80
2023-04-29T09:34:41.810Z,17.70
2023-04-29T09:37:26.228Z,17.70
2023-04-29T09:39:53.316Z,17.80
2023-04-29T09:42:20.114Z,17.80
2023-04-29T09:44:46.770Z,17.90
2023-04-29T09:47:13.686Z,18.10
2023-04-29T09:49:42.512Z,18.10
2023-04-29T09:52:11.786Z,18.20
2023-04-29T09:54:40.737Z,18.20
2023-04-29T09:57:10.651Z,18.20
2023-04-29T09:59:39.974Z,18.20
2023-04-29T10:02:21.004Z,18.40
2023-04-29T10:04:53.803Z,18.50
2023-04-29T10:07:21.843Z,18.40
2023-04-29T10:09:49.051Z,18.30
2023-04-29T10:12:22.412Z,18.40
2023-04-29T10:15:05.683Z,18.40
2023-04-29T10:17:49.400Z,18.40
2023-04-29T10:20:24.430Z,18.50
2023-04-29T10:22:53.076Z,18.60
2023-04-29T10:25:21.302Z,18.70
2023-04-29T10:27:49.224Z,18.70
2023-04-29T10:30:18.637Z,18.80
2023-04-29T10:35:22.221Z,18.80
2023-04-29T10:37:49.650Z,18.80
2023-04-29T10:40:39.817Z,18.80
2023-04-29T10:43:06.919Z,18.70
2023-04-29T10:45:40.106Z,18.70
2023-04-29T10:48:13.951Z,18.80
2023-04-29T10:50:49.748Z,18.90
2023-04-29T10:53:20.069Z,19.00
2023-04-29T10:55:58.640Z,19.10
2023-04-29T10:58:44.729Z,19.20
2023-04-29T11:01:17.134Z,19.30
2023-04-29T11:03:55.867Z,19.30
2023-04-29T11:06:25.056Z,19.40
2023-04-29T11:09:08.581Z,19.40
2023-04-29T11:11:45.261Z,19.40
2023-04-29T11:14:13.744Z,19.40
2023-04-29T11:16:56.088Z,19.30
2023-04-29T11:19:26.607Z,19.40
2023-04-29T11:22:21.127Z,19.40
2023-04-29T11:25:00.279Z,19.50
2023-04-29T11:27:33.603Z,19.70
2023-04-29T11:30:03.130Z,19.80
2023-04-29T11:32:37.840Z,19.90
2023-04-29T11:35:18.021Z,20.00
2023-04-29T11:37:45.918Z,20.20
2023-04-29T11:40:13.346Z,20.30
2023-04-29T11:42:47.830Z,20.30
2023-04-29T11:45:17.149Z,20.30
2023-04-29T11:47:48.339Z,20.30
2023-04-29T11:50:19.460Z,20.30
2023-04-29T11:52:47.874Z,20.40
2023-04-29T11:55:14.721Z,20.40
2023-04-29T11:57:41.730Z,20.50
2023-04-29T12:00:13.526Z,20.50
2023-04-29T12:02:44.746Z,20.50
2023-04-29T12:05:12.960Z,20.70
2023-04-29T12:07:40.111Z,20.60
2023-04-29T12:10:12.065Z,20.60
2023-04-29T12:12:41.325Z,20.80
2023-04-29T12:15:10.093Z,20.80
2023-04-29T12:17:37.395Z,20.90
2023-04-29T12:20:04.575Z,20.90
2023-04-29T12:22:32.168Z,21.00
2023-04-29T12:24:58.845Z,21.00
2023-04-29T12:27:26.583Z,21.10
2023-04-29T12:29:53.285Z,21.20
2023-04-29T12:32:23.750Z,21.10
2023-04-29T12:34:55.411Z,21.00
2023-04-29T12:37:23.730Z,20.90
2023-04-29T12:39:51.014Z,20.90
2023-04-29T12:42:18.365Z,20.90
2023-04-29T12:44:47.478Z,20.90
2023-04-29T12:47:15.220Z,20.90
2023-04-29T12:49:43.362Z,20.90
2023-04-29T12:52:10.498Z,20.90
2023-04-29T12:54:38.348Z,20.80
2023-04-29T12:57:05.233Z,20.90
2023-04-29T12:59:31.981Z,21.00
2023-04-29T13:01:58.696Z,21.10
2023-04-29T13:04:26.130Z,21.20
2023-04-29T13:06:59.894Z,21.30
2023-04-29T13:09:27.058Z,21.40
2023-04-29T13:11:53.968Z,21.50
2023-04-29T13:14:21.148Z,21.50
2023-04-29T13:16:47.788Z,21.60
2023-04-29T13:19:30.489Z,21.60
2023-04-29T13:22:01.573Z,21.60
2023-04-29T13:24:28.188Z,21.70
2023-04-29T13:26:54.851Z,21.70
2023-04-29T13:29:21.495Z,21.70
2023-04-29T13:31:48.287Z,21.70
2023-04-29T13:34:15.046Z,21.60
2023-04-29T13:36:41.707Z,21.50
2023-04-29T13:39:08.810Z,21.50
2023-04-29T13:41:41.306Z,21.40
2023-04-29T13:44:23.760Z,21.50
2023-04-29T13:46:55.660Z,21.50
2023-04-29T13:49:53.904Z,21.50
2023-04-29T13:54:59.391Z,21.30
2023-04-29T13:58:24.065Z,21.20
2023-04-29T14:00:44.106Z,21.10
2023-04-29T14:03:02.078Z,21.00
2023-04-29T14:05:30.005Z,21.00
2023-04-29T14:07:56.798Z,20.90
2023-04-29T14:10:23.428Z,20.80
2023-04-29T14:12:50.039Z,20.60
2023-04-29T14:15:16.727Z,20.50
2023-04-29T14:17:43.421Z,20.60
2023-04-29T14:20:10.321Z,20.50
2023-04-29T14:22:39.710Z,20.40
2023-04-29T14:25:09.884Z,20.40
2023-04-29T14:27:39.424Z,20.50
2023-04-29T14:30:09.861Z,20.50
2023-04-29T14:32:38.424Z,20.60
2023-04-29T14:35:12.797Z,20.60
2023-04-29T14:37:39.478Z,20.60
2023-04-29T14:40:09.401Z,20.70
2023-04-29T14:42:36.307Z,20.70
2023-04-29T14:45:03.294Z,20.70
2023-04-29T14:47:29.929Z,20.60
2023-04-29T14:49:56.712Z,20.60
2023-04-29T14:52:23.451Z,20.50
2023-04-29T14:54:50.164Z,20.40
2023-04-29T14:57:16.788Z,20.40
2023-04-29T14:59:43.486Z,20.40
2023-04-29T15:02:10.751Z,20.40
2023-04-29T15:04:39.064Z,20.40
2023-04-29T15:07:08.797Z,20.30
2023-04-29T15:09:35.625Z,20.30
2023-04-29T15:12:02.432Z,20.20
2023-04-29T15:14:29.162Z,20.20
2023-04-29T15:16:56.008Z,20.20
2023-04-29T15:19:25.458Z,20.20
2023-04-29T15:21:52.476Z,20.20
2023-04-29T15:24:19.847Z,20.20
2023-04-29T15:26:46.641Z,20.10
2023-04-29T15:29:13.331Z,20.10
2023-04-29T15:31:40.224Z,20.10
2023-04-29T15:34:06.940Z,20.00
2023-04-29T15:36:34.479Z,19.80
2023-04-29T15:39:01.174Z,19.80
2023-04-29T15:41:27.897Z,19.80
2023-04-29T15:43:56.551Z,19.70
2023-04-29T15:46:23.770Z,19.50
2023-04-29T15:48:50.568Z,19.70
2023-04-29T15:51:17.794Z,19.70
2023-04-29T15:53:44.856Z,19.80
2023-04-29T15:56:11.600Z,19.80
2023-04-29T15:58:38.350Z,19.90
2023-04-29T16:01:05.277Z,20.00
2023-04-29T16:03:32.484Z,20.10
2023-04-29T16:05:59.299Z,20.10
2023-04-29T16:08:27.966Z,20.20
2023-04-29T16:10:54.774Z,20.10
2023-04-29T16:13:21.596Z,20.10
2023-04-29T16:15:48.236Z,19.90
2023-04-29T16:18:17.253Z,19.90
2023-04-29T16:20:45.017Z,20.00
2023-04-29T16:23:12.141Z,20.00
2023-04-29T16:25:41.313Z,20.10
2023-04-29T16:28:07.991Z,20.00
2023-04-29T16:30:35.878Z,20.00
2023-04-29T16:33:04.125Z,20.00
2023-04-29T16:35:32.881Z,19.90
2023-04-29T16:37:59.825Z,19.90
2023-04-29T16:40:27.740Z,19.90
2023-04-29T16:42:57.781Z,19.90
2023-04-29T16:45:26.367Z,19.80
2023-04-29T16:47:54.600Z,19.90
2023-04-29T16:50:21.755Z,19.70
2023-04-29T16:52:48.699Z,19.80
2023-04-29T16:55:16.016Z,19.80
2023-04-29T16:57:48.692Z,19.60
2023-04-29T17:00:28.817Z,19.50
2023-04-29T17:02:58.804Z,19.30
2023-04-29T17:05:27.411Z,19.30
2023-04-29T17:07:57.109Z,19.10
2023-04-29T17:10:26.754Z,19.20
2023-04-29T17:12:53.425Z,19.20
2023-04-29T17:15:22.554Z,19.10
2023-04-29T17:17:49.387Z,19.10
2023-04-29T17:20:15.973Z,19.10
2023-04-29T17:22:42.630Z,19.00
2023-04-29T17:25:10.320Z,19.00
2023-04-29T17:27:37.328Z,19.00
2023-04-29T17:30:06.201Z,18.90
2023-04-29T17:32:38.825Z,18.80
2023-04-29T17:35:09.379Z,18.70
2023-04-29T17:37:36.239Z,18.70
2023-04-29T17:40:03.400Z,18.60
2023-04-29T17:42:29.993Z,18.60
2023-04-29T17:44:56.594Z,18.60
2023-04-29T17:47:23.324Z,18.50
2023-04-29T17:49:51.907Z,18.60
2023-04-29T17:52:21.218Z,18.60
2023-04-29T17:54:48.744Z,18.60
2023-04-29T17:57:15.626Z,18.60
2023-04-29T17:59:42.196Z,18.60
2023-04-29T18:02:08.777Z,18.50
2023-04-29T18:04:37.260Z,18.50
2023-04-29T18:07:04.050Z,18.60
2023-04-29T18:09:30.684Z,18.50
2023-04-29T18:11:57.318Z,18.60
2023-04-29T18:14:24.570Z,18.50
2023-04-29T18:16:51.559Z,18.50
2023-04-29T18:19:18.314Z,18.50
2023-04-29T18:21:45.326Z,18.40
2023-04-29T18:24:12.105Z,18.40
2023-04-29T18:26:38.788Z,18.40
2023-04-29T18:29:05.395Z,18.40
2023-04-29T18:31:32.368Z,18.30
2023-04-29T18:33:58.987Z,18.30
2023-04-29T18:36:26.609Z,18.30
2023-04-29T18:38:53.284Z,18.20
2023-04-29T18:41:19.903Z,18.30
2023-04-29T18:43:46.495Z,18.20
2023-04-29T18:46:13.166Z,18.20
2023-04-29T18:48:40.542Z,18.20
2023-04-29T18:51:07.342Z,18.20
2023-04-29T18:53:34.449Z,18.20
2023-04-29T18:56:01.238Z,18.10
2023-04-29T18:58:27.992Z,18.00
2023-04-29T19:00:55.061Z,18.00
2023-04-29T19:03:21.781Z,18.00
2023-04-29T19:05:48.430Z,17.90
2023-04-29T19:08:16.360Z,17.90
2023-04-29T19:10:44.278Z,17.80
2023-04-29T19:13:11.402Z,17.70
2023-04-29T19:15:38.221Z,17.70
2023-04-29T19:18:05.091Z,17.60
2023-04-29T19:20:32.143Z,17.60
2023-04-29T19:22:58.835Z,17.50
2023-04-29T19:25:28.529Z,17.40
2023-04-29T19:27:55.124Z,17.40
2023-04-29T19:30:21.907Z,17.40
2023-04-29T19:32:48.887Z,17.30
2023-04-29T19:35:15.676Z,17.20
2023-04-29T19:37:42.266Z,17.20
2023-04-29T19:40:10.854Z,17.20
2023-04-29T19:42:38.630Z,17.10
2023-04-29T19:45:09.339Z,17.10
2023-04-29T19:47:36.656Z,17.10
2023-04-29T19:50:04.367Z,17.00
2023-04-29T19:52:31.453Z,17.00
2023-04-29T19:54:58.114Z,16.90
2023-04-29T19:57:24.976Z,16.80
2023-04-29T19:59:51.781Z,16.80
2023-04-29T20:02:19.026Z,16.80
2023-04-29T20:04:45.962Z,16.70
2023-04-29T20:07:12.546Z,16.80
2023-04-29T20:09:39.635Z,16.70
2023-04-29T20:12:06.834Z,16.70
2023-04-29T20:14:33.479Z,16.70
2023-04-29T20:17:00.782Z,16.60
2023-04-29T20:19:27.695Z,16.60
2023-04-29T20:21:54.306Z,16.60
2023-04-29T20:24:20.975Z,16.60
2023-04-29T20:26:47.716Z,16.70
2023-04-29T20:29:14.383Z,16.60
2023-04-29T20:31:41.174Z,16.50
2023-04-29T20:34:07.970Z,16.50
2023-04-29T20:36:34.654Z,16.50
2023-04-29T20:39:01.420Z,16.50
2023-04-29T20:41:28.844Z,16.50
2023-04-29T20:43:55.936Z,16.50
2023-04-29T20:46:24.632Z,16.40
2023-04-29T20:48:52.887Z,16.40
2023-04-29T20:51:19.490Z,16.40
2023-04-29T20:53:46.676Z,16.30
2023-04-29T20:56:13.732Z,16.30
2023-04-29T20:58:40.499Z,16.30
2023-04-29T21:01:08.071Z,16.20
2023-04-29T21:03:35.033Z,16.20
2023-04-29T21:06:01.794Z,16.10
2023-04-29T21:08:28.598Z,16.20
2023-04-29T21:10:55.886Z,16.20
2023-04-29T21:13:22.477Z,16.20
2023-04-29T21:15:49.153Z,16.10
2023-04-29T21:18:15.823Z,16.00
2023-04-29T21:20:42.432Z,15.90
2023-04-29T21:23:09.201Z,15.90
2023-04-29T21:25:35.819Z,15.80
2023-04-29T21:28:02.494Z,15.80
2023-04-29T21:30:29.271Z,15.80
2023-04-29T21:32:56.234Z,15.70
2023-04-29T21:35:22.920Z,15.70
2023-04-29T21:37:49.558Z,15.70
2023-04-29T21:40:16.600Z,15.70
2023-04-29T21:42:43.822Z,15.70
2023-04-29T21:45:12.456Z,15.60
2023-04-29T21:47:39.172Z,15.60
2023-04-29T21:50:06.845Z,15.60
2023-04-29T21:52:35.052Z,15.60
2023-04-29T21:55:03.654Z,15.50
2023-04-29T21:57:42.809Z,15.50
2023-04-29T22:00:27.974Z,15.50
2023-04-29T22:02:54.615Z,15.40
2023-04-29T22:05:21.203Z,15.40
2023-04-29T22:07:47.800Z,15.40
2023-04-29T22:10:14.524Z,15.30
2023-04-29T22:12:41.250Z,15.30
2023-04-29T22:15:17.088Z,15.30
2023-04-29T22:17:54.224Z,15.30
2023-04-29T22:20:21.077Z,15.30
2023-04-29T22:22:47.673Z,15.30
2023-04-29T22:25:14.520Z,15.30
2023-04-29T22:27:41.127Z,15.20
2023-04-29T22:30:08.353Z,15.20
2023-04-29T22:32:35.049Z,15.20
2023-04-29T22:35:01.687Z,15.20
2023-04-29T22:37:28.368Z,15.10
2023-04-29T22:39:55.303Z,15.10
2023-04-29T22:42:22.348Z,15.10
2023-04-29T22:44:48.918Z,15.10
2023-04-29T22:47:15.530Z,15.00
2023-04-29T22:49:42.117Z,15.00
2023-04-29T22:52:08.899Z,15.00
2023-04-29T22:54:36.026Z,15.00
2023-04-29T22:57:03.865Z,14.90
2023-04-29T22:59:30.451Z,14.90
2023-04-29T23:01:57.258Z,15.00
2023-04-29T23:04:24.774Z,14.90
2023-04-29T23:06:51.896Z,14.80
2023-04-29T23:09:18.928Z,14.80
2023-04-29T23:11:45.705Z,14.80
2023-04-29T23:14:12.318Z,14.70
2023-04-29T23:16:38.972Z,14.70
2023-04-29T23:19:05.552Z,14.60
2023-04-29T23:21:32.408Z,14.50
2023-04-29T23:23:59.046Z,14.50
2023-04-29T23:26:25.632Z,14.50
2023-04-29T23:28:52.284Z,14.50
2023-04-29T23:31:19.117Z,14.50
2023-04-29T23:33:46.084Z,14.50
2023-04-29T23:36:12.736Z,14.40
2023-04-29T23:38:39.360Z,14.40
2023-04-29T23:41:06.001Z,14.40
2023-04-29T23:43:32.583Z,14.30
2023-04-29T23:45:59.250Z,14.30
2023-04-29T23:48:25.814Z,14.30
2023-04-29T23:50:52.526Z,14.30
2023-04-29T23:53:19.121Z,14.30
2023-04-29T23:55:45.955Z,14.20
2023-04-29T23:58:12.574Z,14.20
